Mariner Of The Seas — C6FV9 — position and weather

sailwx.info

Track history (hours):
 
Tides and Currents Weather Stations Pressure Air Temp Water Temp Dewpoint Dewpoint Depression Visibility Wind Speed Wind Dir Waves Ship Positions

Mariner Of The Seas

Operator: Royal Caribbean Cruises Ltd

Last reported at 2018-Oct-23 17:00 UTC. Time now 2018-Oct-24 06:06 UTC.
Position N 25°00' W 077°18'.

Type: Passenger vessel. MMSI: 311493000.

Wind from 070 at 9 knots

Barometer 1017.0 mb
Air temperature 28.0 ° C
Visibility: greater than 10.8 NM
Dewpoint 22.1 ° C
Water temperature 28.0 ° C

Date/timePositionNaut miles runAvg speedWind from/ knotsBaromVisibWave heightAir tempDewpointWater temp
2018-Oct-23 17:00N 25°00' W 077°18'129 8.4 070 / 91017.010.8 28.022.128.0
2018-Oct-23 01:35N 26°17' W 079°13'114.2
2018-Oct-23 01:29N 26°16' W 079°14'614.4
2018-Oct-23 01:04N 26°13' W 079°20'114.6
2018-Oct-23 01:00N 26°12' W 079°21'714.9
2018-Oct-23 00:30N 26°07' W 079°27'715.0
2018-Oct-23 00:03N 26°04' W 079°33'115.3
2018-Oct-23 00:00N 26°03' W 079°34'815.3
2018-Oct-22 23:30N 25°59' W 079°41'715.6
2018-Oct-22 23:03N 25°55' W 079°47'115.7
2018-Oct-22 23:00N 25°55' W 079°48'815.7
2018-Oct-22 22:30N 25°50' W 079°55'715.4
2018-Oct-22 22:03N 25°47' W 080°02'114.0
2018-Oct-22 22:00N 25°46' W 080°03'5 9.2
2018-Oct-22 21:30N 25°46' W 080°08'3 6.9
2018-Oct-22 21:03N 25°47' W 080°11'0 1.6
2018-Oct-22 21:00N 25°47' W 080°11'0 0.4
2018-Oct-22 20:25N 25°47' W 080°11'0 0.0
2018-Oct-22 20:01N 25°47' W 080°11'0 0.0
2018-Oct-22 19:58N 25°47' W 080°11'0 0.0
2018-Oct-22 19:28N 25°47' W 080°11'0 0.0
2018-Oct-22 19:01N 25°47' W 080°11'0 0.0
2018-Oct-22 18:55N 25°47' W 080°11'0 0.0
2018-Oct-22 18:28N 25°47' W 080°11'0 0.0
2018-Oct-22 17:58N 25°47' W 080°11'0 0.0
2018-Oct-22 17:28N 25°47' W 080°11'0 0.0
2018-Oct-22 17:01N 25°47' W 080°11'0 0.0
2018-Oct-22 16:58N 25°47' W 080°11'0 0.0
2018-Oct-22 16:28N 25°47' W 080°11'0 0.0
2018-Oct-22 16:01N 25°47' W 080°11'0 0.0
2018-Oct-22 15:58N 25°47' W 080°11'0 0.0
2018-Oct-22 15:28N 25°47' W 080°11'0 0.0
2018-Oct-22 15:01N 25°47' W 080°11'0 0.0
2018-Oct-22 14:58N 25°47' W 080°11'0 0.0
2018-Oct-22 14:28N 25°47' W 080°11'0 0.0
2018-Oct-22 13:28N 25°47' W 080°11'0 0.0
2018-Oct-22 13:01N 25°47' W 080°11'0 0.0
2018-Oct-22 12:58N 25°47' W 080°11'0 0.0
2018-Oct-22 12:28N 25°47' W 080°11'0 0.0
2018-Oct-22 12:01N 25°47' W 080°11'0 0.0
2018-Oct-22 11:58N 25°47' W 080°11'0 0.0
2018-Oct-22 11:28N 25°47' W 080°11'0 0.0
2018-Oct-22 11:01N 25°47' W 080°11'0 0.0
2018-Oct-22 10:55N 25°47' W 080°11'0 0.0
2018-Oct-22 10:28N 25°47' W 080°11'0 1.1
2018-Oct-22 10:03N 25°47' W 080°10'0 6.5
2018-Oct-22 10:00N 25°47' W 080°10'5 9.8
2018-Oct-22 09:31N 25°46' W 080°05'4 8.2
2018-Oct-22 09:03N 25°47' W 080°01'0 8.7
2018-Oct-22 09:00N 25°48' W 080°00'510.6
2018-Oct-22 08:30N 25°51' W 079°56'511.6
2018-Oct-22 08:03N 25°54' W 079°51'0 6.1
2018-Oct-22 08:00N 25°53' W 079°50'2 3.7
2018-Oct-22 07:30N 25°54' W 079°48'510.3
2018-Oct-22 07:03N 25°56' W 079°44'112.6
2018-Oct-22 07:01N 25°56' W 079°43'14310.2
2018-Oct-21 17:00N 25°00' W 077°18'30 1.9 330 / 71015.610.8 28.222.328.8
2018-Oct-21 01:00N 25°30' W 077°18'37 3.7 150 / 41015.110.8 27.0 29.0
2018-Oct-20 15:00N 25°48' W 077°54'77 6.2 1018.610.8 29.529.528.7
2018-Oct-20 02:33N 26°16' W 079°14'1 9.4
2018-Oct-20 02:27N 26°15' W 079°15'4 9.3
2018-Oct-20 02:03N 26°13' W 079°18'1 9.4
2018-Oct-20 02:00N 26°13' W 079°19'5 9.7
2018-Oct-20 01:30N 26°10' W 079°23'4 9.9
2018-Oct-20 01:03N 26°07' W 079°27'110.0
2018-Oct-20 01:00N 26°07' W 079°28'510.2
2018-Oct-20 00:30N 26°04' W 079°32'510.5
2018-Oct-20 00:03N 26°02' W 079°37'110.5
2018-Oct-20 00:00N 26°01' W 079°37'510.8
2018-Oct-19 23:30N 25°58' W 079°42'510.8
2018-Oct-19 23:03N 25°56' W 079°47'110.7
2018-Oct-19 23:00N 25°55' W 079°47'510.7
2018-Oct-19 22:30N 25°53' W 079°52'510.4
2018-Oct-19 22:03N 25°50' W 079°57'110.3
2018-Oct-19 22:00N 25°50' W 079°57'510.5
2018-Oct-19 21:30N 25°47' W 080°02'4 9.6
2018-Oct-19 21:03N 25°45' W 080°07'111.8
2018-Oct-19 21:00N 25°46' W 080°07'3 6.7
2018-Oct-19 20:30N 25°47' W 080°11'0 0.0
2018-Oct-19 20:02N 25°47' W 080°11'0 0.0
2018-Oct-19 19:56N 25°47' W 080°11'0 0.0
2018-Oct-19 19:23N 25°47' W 080°11'0 0.0
2018-Oct-19 19:02N 25°47' W 080°11'0 0.0
2018-Oct-19 18:50N 25°47' W 080°11'0 0.0
2018-Oct-19 18:29N 25°47' W 080°11'0 0.0
2018-Oct-19 18:04N 25°47' W 080°11'0 0.0
2018-Oct-19 18:00N 25°47' W 080°11'0 0.0
2018-Oct-19 17:31N 25°47' W 080°11'0 0.0
2018-Oct-19 17:03N 25°47' W 080°11'0 0.0
2018-Oct-19 17:01N 25°47' W 080°11'0 0.0
2018-Oct-19 16:31N 25°47' W 080°11'0 0.0
2018-Oct-19 16:03N 25°47' W 080°11'0 0.0
2018-Oct-19 16:01N 25°47' W 080°11'0 0.0
2018-Oct-19 15:31N 25°47' W 080°11'0 0.0
2018-Oct-19 15:03N 25°47' W 080°11'0 0.0
2018-Oct-19 15:00N 25°47' W 080°11'0 0.0
2018-Oct-19 14:03N 25°47' W 080°11'0 0.0
2018-Oct-19 13:30N 25°47' W 080°11'0 0.0
2018-Oct-19 13:03N 25°47' W 080°11'0 0.0
2018-Oct-19 13:00N 25°47' W 080°11'0 0.0
2018-Oct-19 12:30N 25°47' W 080°11'0 0.0
2018-Oct-19 12:03N 25°47' W 080°11'0 0.0
2018-Oct-19 12:00N 25°47' W 080°11'0 0.0
2018-Oct-19 11:30N 25°47' W 080°11'0 0.0
2018-Oct-19 11:03N 25°47' W 080°11'0 0.0
2018-Oct-19 11:00N 25°47' W 080°11'0 0.0
2018-Oct-19 10:30N 25°47' W 080°11'0 0.0
2018-Oct-19 10:03N 25°47' W 080°11'0 0.0
2018-Oct-19 10:01N 25°47' W 080°11'0 0.3
2018-Oct-19 09:30N 25°47' W 080°11'1 2.3
2018-Oct-19 09:03N 25°47' W 080°10'0 6.5
2018-Oct-19 09:00N 25°46' W 080°09'5 9.7
2018-Oct-19 08:31N 25°46' W 080°04'4 8.4
2018-Oct-19 08:03N 25°48' W 080°00'010.1
2018-Oct-19 08:00N 25°48' W 080°00'510.2
2018-Oct-19 07:31N 25°51' W 079°55'3 7.2
2018-Oct-19 07:04N 25°53' W 079°52'0 2.1
2018-Oct-19 07:01N 25°53' W 079°52'3 6.4
2018-Oct-19 06:30N 25°54' W 079°49'4 8.7
2018-Oct-19 06:04N 25°57' W 079°46'2 8.8
2018-Oct-19 05:48N 25°58' W 079°44'3 8.8
2018-Oct-19 05:30N 25°59' W 079°41'5 8.1
2018-Oct-19 04:56N 26°02' W 079°37'45 7.6
2018-Oct-18 23:00N 26°12' W 078°48'59 2.4 080 / 141019.610.8 28.0 29.0
2018-Oct-17 22:00N 25°48' W 077°48'6 0.1 100 / 131018.810.8 31.0 29.0
2018-Oct-16 06:00N 25°54' W 077°48'8515.4 100 / 201018.010.8 28.0 29.0
2018-Oct-16 00:27N 26°12' W 079°21'615.6
2018-Oct-16 00:03N 26°09' W 079°26'116.1
2018-Oct-16 00:00N 26°08' W 079°27'816.1
2018-Oct-15 23:30N 26°03' W 079°34'716.3
2018-Oct-15 23:03N 25°59' W 079°40'116.3
2018-Oct-15 23:00N 25°59' W 079°41'816.5
2018-Oct-15 22:30N 25°54' W 079°49'716.6
2018-Oct-15 22:03N 25°50' W 079°56'116.3
2018-Oct-15 22:00N 25°50' W 079°57'715.0
2018-Oct-15 21:30N 25°46' W 080°04'4 9.5
2018-Oct-15 21:03N 25°46' W 080°09'0 6.9
2018-Oct-15 21:00N 25°46' W 080°09'2 4.2
2018-Oct-15 20:30N 25°47' W 080°11'0 0.6
2018-Oct-15 20:03N 25°47' W 080°11'0 0.0
2018-Oct-15 20:00N 25°47' W 080°11'0 0.0
2018-Oct-15 19:30N 25°47' W 080°11'0 0.0
2018-Oct-15 19:03N 25°47' W 080°11'0 0.0
2018-Oct-15 19:00N 25°47' W 080°11'0 0.0
2018-Oct-15 18:27N 25°47' W 080°11'0 0.0
2018-Oct-15 18:03N 25°47' W 080°11'0 0.0
2018-Oct-15 17:57N 25°47' W 080°11'0 0.0
2018-Oct-15 17:30N 25°47' W 080°11'0 0.0
2018-Oct-15 17:03N 25°47' W 080°11'0 0.0
2018-Oct-15 16:57N 25°47' W 080°11'0 0.0
2018-Oct-15 16:27N 25°47' W 080°11'0 0.0
2018-Oct-15 16:03N 25°47' W 080°11'0 0.0
2018-Oct-15 16:00N 25°47' W 080°11'0 0.0
2018-Oct-15 15:27N 25°47' W 080°11'0 0.0
2018-Oct-15 15:03N 25°47' W 080°11'0 0.0
2018-Oct-15 14:57N 25°47' W 080°11'0 0.0
2018-Oct-15 14:03N 25°47' W 080°11'0 0.0
2018-Oct-15 14:00N 25°47' W 080°11'0 0.0
2018-Oct-15 13:30N 25°47' W 080°11'0 0.0
2018-Oct-15 13:03N 25°47' W 080°11'0 0.0
2018-Oct-15 13:00N 25°47' W 080°11'0 0.0
2018-Oct-15 12:30N 25°47' W 080°11'0 0.0
2018-Oct-15 12:00N 25°47' W 080°11'0 0.0
2018-Oct-15 11:30N 25°47' W 080°11'0 0.0
2018-Oct-15 11:03N 25°47' W 080°11'0 0.0
2018-Oct-15 11:00N 25°47' W 080°11'1 1.1
2018-Oct-15 10:30N 25°47' W 080°10'1 2.6
2018-Oct-15 10:03N 25°46' W 080°09'0 2.2
2018-Oct-15 10:00N 25°46' W 080°09'3 5.6
2018-Oct-15 09:30N 25°46' W 080°06'4 8.9
2018-Oct-15 09:03N 25°47' W 080°02'1 9.8
2018-Oct-15 09:00N 25°48' W 080°01'4 7.7
2018-Oct-15 08:30N 25°49' W 079°57'4 9.3
2018-Oct-15 08:03N 25°51' W 079°54'110.1
2018-Oct-15 08:00N 25°52' W 079°53'3 6.0
2018-Oct-15 07:30N 25°53' W 079°50'614.1
2018-Oct-15 07:03N 25°56' W 079°44'114.2
2018-Oct-15 07:00N 25°56' W 079°43'136 5.4
2018-Oct-14 06:00N 25°18' W 077°18'   150 / 101014.510.8 28.0 29.0
Track history (hours):
 
Tides and Currents Weather Stations Pressure Air Temp Water Temp Dewpoint Dewpoint Depression Visibility Wind Speed Wind Dir Waves Ship Positions

Mariner Of The Seas

Operator: Royal Caribbean Cruises Ltd

Last reported at 2018-Oct-23 17:00 UTC. Time now 2018-Oct-24 06:06 UTC.
Position N 25°00' W 077°18'.

Type: Passenger vessel. MMSI: 311493000.

Wind from 070 at 9 knots

Barometer 1017.0 mb
Air temperature 28.0 ° C
Visibility: greater than 10.8 NM
Dewpoint 22.1 ° C
Water temperature 28.0 ° C

Date/timePositionNaut miles runAvg speedWind from/ knotsBaromVisibWave heightAir tempDewpointWater temp
2018-Oct-23 17:00N 25°00' W 077°18'129 8.4 070 / 91017.010.8 28.022.128.0
2018-Oct-23 01:35N 26°17' W 079°13'114.2
2018-Oct-23 01:29N 26°16' W 079°14'614.4
2018-Oct-23 01:04N 26°13' W 079°20'114.6
2018-Oct-23 01:00N 26°12' W 079°21'714.9
2018-Oct-23 00:30N 26°07' W 079°27'715.0
2018-Oct-23 00:03N 26°04' W 079°33'115.3
2018-Oct-23 00:00N 26°03' W 079°34'815.3
2018-Oct-22 23:30N 25°59' W 079°41'715.6
2018-Oct-22 23:03N 25°55' W 079°47'115.7
2018-Oct-22 23:00N 25°55' W 079°48'815.7
2018-Oct-22 22:30N 25°50' W 079°55'715.4
2018-Oct-22 22:03N 25°47' W 080°02'114.0
2018-Oct-22 22:00N 25°46' W 080°03'5 9.2
2018-Oct-22 21:30N 25°46' W 080°08'3 6.9
2018-Oct-22 21:03N 25°47' W 080°11'0 1.6
2018-Oct-22 21:00N 25°47' W 080°11'0 0.4
2018-Oct-22 20:25N 25°47' W 080°11'0 0.0
2018-Oct-22 20:01N 25°47' W 080°11'0 0.0
2018-Oct-22 19:58N 25°47' W 080°11'0 0.0
2018-Oct-22 19:28N 25°47' W 080°11'0 0.0
2018-Oct-22 19:01N 25°47' W 080°11'0 0.0
2018-Oct-22 18:55N 25°47' W 080°11'0 0.0
2018-Oct-22 18:28N 25°47' W 080°11'0 0.0
2018-Oct-22 17:58N 25°47' W 080°11'0 0.0
2018-Oct-22 17:28N 25°47' W 080°11'0 0.0
2018-Oct-22 17:01N 25°47' W 080°11'0 0.0
2018-Oct-22 16:58N 25°47' W 080°11'0 0.0
2018-Oct-22 16:28N 25°47' W 080°11'0 0.0
2018-Oct-22 16:01N 25°47' W 080°11'0 0.0
2018-Oct-22 15:58N 25°47' W 080°11'0 0.0
2018-Oct-22 15:28N 25°47' W 080°11'0 0.0
2018-Oct-22 15:01N 25°47' W 080°11'0 0.0
2018-Oct-22 14:58N 25°47' W 080°11'0 0.0
2018-Oct-22 14:28N 25°47' W 080°11'0 0.0
2018-Oct-22 13:28N 25°47' W 080°11'0 0.0
2018-Oct-22 13:01N 25°47' W 080°11'0 0.0
2018-Oct-22 12:58N 25°47' W 080°11'0 0.0
2018-Oct-22 12:28N 25°47' W 080°11'0 0.0
2018-Oct-22 12:01N 25°47' W 080°11'0 0.0
2018-Oct-22 11:58N 25°47' W 080°11'0 0.0
2018-Oct-22 11:28N 25°47' W 080°11'0 0.0
2018-Oct-22 11:01N 25°47' W 080°11'0 0.0
2018-Oct-22 10:55N 25°47' W 080°11'0 0.0
2018-Oct-22 10:28N 25°47' W 080°11'0 1.1
2018-Oct-22 10:03N 25°47' W 080°10'0 6.5
2018-Oct-22 10:00N 25°47' W 080°10'5 9.8
2018-Oct-22 09:31N 25°46' W 080°05'4 8.2
2018-Oct-22 09:03N 25°47' W 080°01'0 8.7
2018-Oct-22 09:00N 25°48' W 080°00'510.6
2018-Oct-22 08:30N 25°51' W 079°56'511.6
2018-Oct-22 08:03N 25°54' W 079°51'0 6.1
2018-Oct-22 08:00N 25°53' W 079°50'2 3.7
2018-Oct-22 07:30N 25°54' W 079°48'510.3
2018-Oct-22 07:03N 25°56' W 079°44'112.6
2018-Oct-22 07:01N 25°56' W 079°43'14310.2
2018-Oct-21 17:00N 25°00' W 077°18'30 1.9 330 / 71015.610.8 28.222.328.8
2018-Oct-21 01:00N 25°30' W 077°18'37 3.7 150 / 41015.110.8 27.0 29.0
2018-Oct-20 15:00N 25°48' W 077°54'77 6.2 1018.610.8 29.529.528.7
2018-Oct-20 02:33N 26°16' W 079°14'1 9.4
2018-Oct-20 02:27N 26°15' W 079°15'4 9.3
2018-Oct-20 02:03N 26°13' W 079°18'1 9.4
2018-Oct-20 02:00N 26°13' W 079°19'5 9.7
2018-Oct-20 01:30N 26°10' W 079°23'4 9.9
2018-Oct-20 01:03N 26°07' W 079°27'110.0
2018-Oct-20 01:00N 26°07' W 079°28'510.2
2018-Oct-20 00:30N 26°04' W 079°32'510.5
2018-Oct-20 00:03N 26°02' W 079°37'110.5
2018-Oct-20 00:00N 26°01' W 079°37'510.8
2018-Oct-19 23:30N 25°58' W 079°42'510.8
2018-Oct-19 23:03N 25°56' W 079°47'110.7
2018-Oct-19 23:00N 25°55' W 079°47'510.7
2018-Oct-19 22:30N 25°53' W 079°52'510.4
2018-Oct-19 22:03N 25°50' W 079°57'110.3
2018-Oct-19 22:00N 25°50' W 079°57'510.5
2018-Oct-19 21:30N 25°47' W 080°02'4 9.6
2018-Oct-19 21:03N 25°45' W 080°07'111.8
2018-Oct-19 21:00N 25°46' W 080°07'3 6.7
2018-Oct-19 20:30N 25°47' W 080°11'0 0.0
2018-Oct-19 20:02N 25°47' W 080°11'0 0.0
2018-Oct-19 19:56N 25°47' W 080°11'0 0.0
2018-Oct-19 19:23N 25°47' W 080°11'0 0.0
2018-Oct-19 19:02N 25°47' W 080°11'0 0.0
2018-Oct-19 18:50N 25°47' W 080°11'0 0.0
2018-Oct-19 18:29N 25°47' W 080°11'0 0.0
2018-Oct-19 18:04N 25°47' W 080°11'0 0.0
2018-Oct-19 18:00N 25°47' W 080°11'0 0.0
2018-Oct-19 17:31N 25°47' W 080°11'0 0.0
2018-Oct-19 17:03N 25°47' W 080°11'0 0.0
2018-Oct-19 17:01N 25°47' W 080°11'0 0.0
2018-Oct-19 16:31N 25°47' W 080°11'0 0.0
2018-Oct-19 16:03N 25°47' W 080°11'0 0.0
2018-Oct-19 16:01N 25°47' W 080°11'0 0.0
2018-Oct-19 15:31N 25°47' W 080°11'0 0.0
2018-Oct-19 15:03N 25°47' W 080°11'0 0.0
2018-Oct-19 15:00N 25°47' W 080°11'0 0.0
2018-Oct-19 14:03N 25°47' W 080°11'0 0.0
2018-Oct-19 13:30N 25°47' W 080°11'0 0.0
2018-Oct-19 13:03N 25°47' W 080°11'0 0.0
2018-Oct-19 13:00N 25°47' W 080°11'0 0.0
2018-Oct-19 12:30N 25°47' W 080°11'0 0.0
2018-Oct-19 12:03N 25°47' W 080°11'0 0.0
2018-Oct-19 12:00N 25°47' W 080°11'0 0.0
2018-Oct-19 11:30N 25°47' W 080°11'0 0.0
2018-Oct-19 11:03N 25°47' W 080°11'0 0.0
2018-Oct-19 11:00N 25°47' W 080°11'0 0.0
2018-Oct-19 10:30N 25°47' W 080°11'0 0.0
2018-Oct-19 10:03N 25°47' W 080°11'0 0.0
2018-Oct-19 10:01N 25°47' W 080°11'0 0.3
2018-Oct-19 09:30N 25°47' W 080°11'1 2.3
2018-Oct-19 09:03N 25°47' W 080°10'0 6.5
2018-Oct-19 09:00N 25°46' W 080°09'5 9.7
2018-Oct-19 08:31N 25°46' W 080°04'4 8.4
2018-Oct-19 08:03N 25°48' W 080°00'010.1
2018-Oct-19 08:00N 25°48' W 080°00'510.2
2018-Oct-19 07:31N 25°51' W 079°55'3 7.2
2018-Oct-19 07:04N 25°53' W 079°52'0 2.1
2018-Oct-19 07:01N 25°53' W 079°52'3 6.4
2018-Oct-19 06:30N 25°54' W 079°49'4 8.7
2018-Oct-19 06:04N 25°57' W 079°46'2 8.8
2018-Oct-19 05:48N 25°58' W 079°44'3 8.8
2018-Oct-19 05:30N 25°59' W 079°41'5 8.1
2018-Oct-19 04:56N 26°02' W 079°37'45 7.6
2018-Oct-18 23:00N 26°12' W 078°48'59 2.4 080 / 141019.610.8 28.0 29.0
2018-Oct-17 22:00N 25°48' W 077°48'6 0.1 100 / 131018.810.8 31.0 29.0
2018-Oct-16 06:00N 25°54' W 077°48'8515.4 100 / 201018.010.8 28.0 29.0
2018-Oct-16 00:27N 26°12' W 079°21'615.6
2018-Oct-16 00:03N 26°09' W 079°26'116.1
2018-Oct-16 00:00N 26°08' W 079°27'816.1
2018-Oct-15 23:30N 26°03' W 079°34'716.3
2018-Oct-15 23:03N 25°59' W 079°40'116.3
2018-Oct-15 23:00N 25°59' W 079°41'816.5
2018-Oct-15 22:30N 25°54' W 079°49'716.6
2018-Oct-15 22:03N 25°50' W 079°56'116.3
2018-Oct-15 22:00N 25°50' W 079°57'715.0
2018-Oct-15 21:30N 25°46' W 080°04'4 9.5
2018-Oct-15 21:03N 25°46' W 080°09'0 6.9
2018-Oct-15 21:00N 25°46' W 080°09'2 4.2
2018-Oct-15 20:30N 25°47' W 080°11'0 0.6
2018-Oct-15 20:03N 25°47' W 080°11'0 0.0
2018-Oct-15 20:00N 25°47' W 080°11'0 0.0
2018-Oct-15 19:30N 25°47' W 080°11'0 0.0
2018-Oct-15 19:03N 25°47' W 080°11'0 0.0
2018-Oct-15 19:00N 25°47' W 080°11'0 0.0
2018-Oct-15 18:27N 25°47' W 080°11'0 0.0
2018-Oct-15 18:03N 25°47' W 080°11'0 0.0
2018-Oct-15 17:57N 25°47' W 080°11'0 0.0
2018-Oct-15 17:30N 25°47' W 080°11'0 0.0
2018-Oct-15 17:03N 25°47' W 080°11'0 0.0
2018-Oct-15 16:57N 25°47' W 080°11'0 0.0
2018-Oct-15 16:27N 25°47' W 080°11'0 0.0
2018-Oct-15 16:03N 25°47' W 080°11'0 0.0
2018-Oct-15 16:00N 25°47' W 080°11'0 0.0
2018-Oct-15 15:27N 25°47' W 080°11'0 0.0
2018-Oct-15 15:03N 25°47' W 080°11'0 0.0
2018-Oct-15 14:57N 25°47' W 080°11'0 0.0
2018-Oct-15 14:03N 25°47' W 080°11'0 0.0
2018-Oct-15 14:00N 25°47' W 080°11'0 0.0
2018-Oct-15 13:30N 25°47' W 080°11'0 0.0
2018-Oct-15 13:03N 25°47' W 080°11'0 0.0
2018-Oct-15 13:00N 25°47' W 080°11'0 0.0
2018-Oct-15 12:30N 25°47' W 080°11'0 0.0
2018-Oct-15 12:00N 25°47' W 080°11'0 0.0
2018-Oct-15 11:30N 25°47' W 080°11'0 0.0
2018-Oct-15 11:03N 25°47' W 080°11'0 0.0
2018-Oct-15 11:00N 25°47' W 080°11'1 1.1
2018-Oct-15 10:30N 25°47' W 080°10'1 2.6
2018-Oct-15 10:03N 25°46' W 080°09'0 2.2
2018-Oct-15 10:00N 25°46' W 080°09'3 5.6
2018-Oct-15 09:30N 25°46' W 080°06'4 8.9
2018-Oct-15 09:03N 25°47' W 080°02'1 9.8
2018-Oct-15 09:00N 25°48' W 080°01'4 7.7
2018-Oct-15 08:30N 25°49' W 079°57'4 9.3
2018-Oct-15 08:03N 25°51' W 079°54'110.1
2018-Oct-15 08:00N 25°52' W 079°53'3 6.0
2018-Oct-15 07:30N 25°53' W 079°50'614.1
2018-Oct-15 07:03N 25°56' W 079°44'114.2
2018-Oct-15 07:00N 25°56' W 079°43'136 5.4
2018-Oct-14 06:00N 25°18' W 077°18'   150 / 101014.510.8 28.0 29.0

Dump ship's entire track history